Almo, Kentucky
Current Conditions -  °F | °C
As of 6:15 PM on Friday 24 Oct 2014 (Local Time) from KCEY Reporting Station
Clear Clear  
Wind Chill: 16°   Ceiling: Unl
Heat Index: 16°   Visibility: 10mi
Dew Point: 10°   Wind: 0mph
Humidity: 68%   Direction: NA
Pressure: 30.06"   Gusts: NA
Location:  36.69°N, 88.28°W
Report Text: KCEY 242315Z AUTO 00000KT 10SM CLR 16/10 A3006 RMK AO1
Loading
Personal Weather Stations






























Interactive Weather Map
Tropical Storm Tracking
New forecast layout! Learn more

10-Day Weather Forecast

Advertisements
Track Severe Weather on mobile